createdAt,value
2023-05-03T00:00:08.573Z,9.00
2023-05-03T00:02:40.189Z,9.77
2023-05-03T00:05:13.195Z,9.70
2023-05-03T00:07:43.902Z,9.18
2023-05-03T00:10:13.484Z,9.65
2023-05-03T00:12:42.212Z,9.48
2023-05-03T00:15:11.100Z,9.40
2023-05-03T00:17:38.871Z,9.35
2023-05-03T00:20:08.127Z,10.02
2023-05-03T00:22:36.310Z,8.60
2023-05-03T00:25:04.840Z,9.75
2023-05-03T00:27:32.088Z,9.63
2023-05-03T00:29:59.388Z,10.00
2023-05-03T00:32:26.885Z,9.73
2023-05-03T00:34:57.882Z,10.25
2023-05-03T00:37:26.085Z,9.65
2023-05-03T00:39:53.735Z,9.48
2023-05-03T00:42:21.228Z,10.50
2023-05-03T00:44:48.362Z,10.00
2023-05-03T00:47:16.869Z,10.23
2023-05-03T00:49:44.833Z,10.38
2023-05-03T00:52:12.490Z,11.07
2023-05-03T00:54:40.131Z,11.30
2023-05-03T00:57:07.664Z,11.05
2023-05-03T00:59:35.053Z,12.43
2023-05-03T01:02:02.348Z,12.30
2023-05-03T01:04:30.642Z,12.48
2023-05-03T01:07:05.486Z,13.30
2023-05-03T01:09:49.332Z,13.77
2023-05-03T01:13:00.752Z,13.50
2023-05-03T01:15:46.877Z,13.65
2023-05-03T01:18:27.082Z,13.75
2023-05-03T01:20:55.280Z,13.95
2023-05-03T01:24:03.467Z,13.38
2023-05-03T01:26:30.758Z,13.73
2023-05-03T01:28:58.548Z,12.60
2023-05-03T01:32:03.349Z,13.05
2023-05-03T01:34:58.932Z,12.52
2023-05-03T01:37:26.393Z,12.65
2023-05-03T01:40:04.381Z,13.23
2023-05-03T01:42:36.795Z,13.20
2023-05-03T01:45:06.103Z,12.82
2023-05-03T01:47:33.793Z,12.60
2023-05-03T01:50:01.132Z,11.27
2023-05-03T01:52:28.476Z,10.48
2023-05-03T01:54:55.714Z,10.15
2023-05-03T01:57:23.141Z,11.45
2023-05-03T01:59:50.434Z,12.30
2023-05-03T02:02:17.675Z,12.55
2023-05-03T02:04:44.960Z,11.35
2023-05-03T02:07:13.008Z,12.05
2023-05-03T02:09:40.313Z,11.38
2023-05-03T02:12:08.087Z,13.13
2023-05-03T02:14:35.489Z,12.65
2023-05-03T02:17:03.323Z,13.10
2023-05-03T02:19:30.885Z,11.23
2023-05-03T02:21:58.265Z,10.85
2023-05-03T02:24:25.584Z,10.77
2023-05-03T02:26:52.933Z,11.05
2023-05-03T02:29:20.173Z,11.15
2023-05-03T02:31:47.534Z,11.00
2023-05-03T02:34:14.753Z,10.75
2023-05-03T02:36:42.054Z,13.00
2023-05-03T02:39:09.302Z,11.68
2023-05-03T02:41:36.653Z,12.98
2023-05-03T02:44:05.131Z,12.23
2023-05-03T02:46:32.803Z,13.05
2023-05-03T02:49:00.047Z,12.90
2023-05-03T02:51:27.407Z,15.10
2023-05-03T02:53:54.999Z,13.70
2023-05-03T02:56:22.490Z,14.55
2023-05-03T02:58:49.854Z,14.18
2023-05-03T03:01:17.133Z,15.15
2023-05-03T03:03:44.934Z,13.77
2023-05-03T03:06:12.531Z,15.07
2023-05-03T03:08:39.892Z,15.35
2023-05-03T03:11:08.563Z,15.88
2023-05-03T03:13:39.818Z,15.43
2023-05-03T03:16:10.036Z,16.83
2023-05-03T03:18:37.834Z,17.58
2023-05-03T03:21:05.521Z,16.73
2023-05-03T03:23:34.619Z,16.42
2023-05-03T03:26:02.080Z,16.63
2023-05-03T03:28:29.547Z,16.85
2023-05-03T03:31:00.514Z,17.45
2023-05-03T03:33:27.726Z,15.07
2023-05-03T03:36:01.976Z,14.73
2023-05-03T03:38:34.894Z,15.63
2023-05-03T03:41:05.940Z,15.50
2023-05-03T03:43:33.466Z,15.32
2023-05-03T03:46:03.096Z,16.08
2023-05-03T03:48:30.369Z,15.43
2023-05-03T03:50:57.750Z,15.90
2023-05-03T03:53:31.981Z,15.18
2023-05-03T03:55:59.866Z,15.80
2023-05-03T03:58:27.130Z,16.65
2023-05-03T04:00:55.679Z,15.57
2023-05-03T04:03:25.127Z,15.63
2023-05-03T04:05:52.671Z,15.98
2023-05-03T04:08:21.440Z,17.40
2023-05-03T04:10:49.063Z,17.40
2023-05-03T04:13:16.728Z,18.58
2023-05-03T04:15:45.348Z,19.70
2023-05-03T04:18:13.830Z,17.95
2023-05-03T04:20:42.500Z,17.73
2023-05-03T04:23:09.836Z,19.85
2023-05-03T04:25:39.124Z,17.42
2023-05-03T04:28:13.696Z,18.13
2023-05-03T04:30:47.619Z,18.65
2023-05-03T04:33:19.547Z,18.50
2023-05-03T04:35:53.242Z,19.55
2023-05-03T04:38:20.858Z,20.25
2023-05-03T04:40:48.295Z,19.13
2023-05-03T04:43:15.957Z,19.05
2023-05-03T04:45:46.253Z,17.98
2023-05-03T04:48:21.002Z,19.27
2023-05-03T04:50:48.320Z,19.50
2023-05-03T04:53:18.438Z,20.25
2023-05-03T04:55:51.464Z,21.42
2023-05-03T04:58:18.940Z,21.73
2023-05-03T05:00:46.867Z,23.50
2023-05-03T05:03:21.573Z,22.38
2023-05-03T05:05:51.505Z,21.08
2023-05-03T05:08:20.960Z,22.30
2023-05-03T05:10:52.436Z,23.67
2023-05-03T05:13:24.504Z,23.23
2023-05-03T05:15:52.116Z,21.88
2023-05-03T05:18:19.427Z,23.00
2023-05-03T05:20:48.828Z,22.52
2023-05-03T05:23:16.389Z,21.88
2023-05-03T05:25:47.156Z,23.48
2023-05-03T05:28:14.708Z,22.92
2023-05-03T05:30:42.086Z,22.80
2023-05-03T05:33:09.752Z,24.13
2023-05-03T05:35:37.648Z,23.90
2023-05-03T05:38:05.738Z,24.17
2023-05-03T05:40:34.718Z,24.60
2023-05-03T05:43:02.504Z,26.05
2023-05-03T05:45:34.704Z,25.83
2023-05-03T05:48:04.782Z,23.63
2023-05-03T05:50:32.958Z,23.73
2023-05-03T05:53:05.270Z,24.88
2023-05-03T05:55:36.731Z,25.38
2023-05-03T05:58:04.510Z,25.05
2023-05-03T06:00:41.144Z,24.20
2023-05-03T06:03:08.549Z,26.40
2023-05-03T06:05:35.906Z,28.02
2023-05-03T06:08:03.202Z,28.45
2023-05-03T06:10:30.586Z,27.08
2023-05-03T06:12:58.475Z,28.58
2023-05-03T06:15:27.898Z,27.10
2023-05-03T06:17:55.814Z,25.85
2023-05-03T06:20:24.577Z,20.55
2023-05-03T06:22:53.147Z,18.23
2023-05-03T06:25:21.381Z,17.00
2023-05-03T06:27:50.736Z,17.33
2023-05-03T06:30:21.949Z,12.70
2023-05-03T06:32:50.499Z,13.18
2023-05-03T06:35:19.853Z,13.52
2023-05-03T06:37:48.581Z,13.63
2023-05-03T06:40:16.222Z,14.95
2023-05-03T06:42:43.584Z,15.50
2023-05-03T06:45:20.054Z,15.18
2023-05-03T06:47:47.464Z,14.82
2023-05-03T06:50:14.982Z,13.45
2023-05-03T06:52:42.452Z,13.25
2023-05-03T06:55:10.395Z,12.75
2023-05-03T06:57:37.762Z,12.40
2023-05-03T07:00:07.389Z,12.10
2023-05-03T07:02:35.376Z,10.37
2023-05-03T07:05:03.185Z,10.15
2023-05-03T07:07:31.121Z,10.65
2023-05-03T07:09:58.586Z,10.73
2023-05-03T07:12:28.420Z,11.32
2023-05-03T07:14:56.247Z,11.82
2023-05-03T07:17:24.805Z,11.45
2023-05-03T07:19:52.911Z,10.65
2023-05-03T07:22:25.476Z,12.88
2023-05-03T07:24:58.992Z,13.60
2023-05-03T07:27:27.280Z,13.05
2023-05-03T07:29:54.912Z,13.10
2023-05-03T07:32:22.453Z,12.52
2023-05-03T07:34:50.024Z,13.82
2023-05-03T07:37:17.581Z,13.65
2023-05-03T07:39:45.641Z,12.95
2023-05-03T07:42:13.172Z,12.50
2023-05-03T07:44:41.210Z,12.50
2023-05-03T07:47:08.435Z,12.43
2023-05-03T07:49:38.167Z,11.82
2023-05-03T07:52:05.646Z,11.77
2023-05-03T07:54:32.852Z,11.63
2023-05-03T07:57:00.776Z,11.90
2023-05-03T07:59:28.021Z,11.57
2023-05-03T08:01:55.509Z,11.02
2023-05-03T08:04:24.655Z,10.25
2023-05-03T08:06:52.817Z,11.50
2023-05-03T08:09:20.786Z,10.38
2023-05-03T08:11:48.257Z,9.40
2023-05-03T08:14:15.908Z,9.57
2023-05-03T08:16:43.379Z,10.07
2023-05-03T08:19:10.736Z,11.52
2023-05-03T08:21:38.166Z,9.73
2023-05-03T08:24:09.330Z,11.40
2023-05-03T08:26:36.739Z,10.90
2023-05-03T08:29:03.998Z,11.23
2023-05-03T08:31:31.537Z,11.20
2023-05-03T08:33:59.028Z,11.63
2023-05-03T08:36:26.429Z,11.98
2023-05-03T08:38:53.671Z,11.15
2023-05-03T08:41:31.282Z,11.32
2023-05-03T08:44:01.033Z,12.75
2023-05-03T08:46:29.405Z,12.37
2023-05-03T08:48:57.424Z,12.20
2023-05-03T08:51:25.504Z,14.05
2023-05-03T08:53:52.820Z,13.60
2023-05-03T08:56:40.130Z,13.15
2023-05-03T08:59:08.661Z,13.27
2023-05-03T09:01:42.637Z,12.48
2023-05-03T09:04:11.837Z,12.85
2023-05-03T09:06:39.773Z,12.60
2023-05-03T09:09:08.788Z,11.57
2023-05-03T09:11:38.728Z,11.85
2023-05-03T09:14:19.164Z,11.25
2023-05-03T09:16:47.559Z,11.35
2023-05-03T09:19:18.613Z,9.68
2023-05-03T09:21:47.725Z,10.85
2023-05-03T09:24:22.302Z,11.93
2023-05-03T09:26:51.880Z,11.15
2023-05-03T09:29:31.226Z,10.50
2023-05-03T09:32:01.840Z,11.02
2023-05-03T09:34:29.378Z,11.57
2023-05-03T09:36:56.679Z,10.77
2023-05-03T09:39:24.314Z,10.38
2023-05-03T09:41:51.721Z,10.73
2023-05-03T09:44:19.200Z,11.27
2023-05-03T09:47:06.297Z,12.27
2023-05-03T09:49:34.411Z,11.45
2023-05-03T09:52:02.980Z,10.98
2023-05-03T09:54:35.556Z,11.95
2023-05-03T09:57:08.079Z,12.18
2023-05-03T09:59:38.444Z,13.00
2023-05-03T10:02:08.459Z,10.88
2023-05-03T10:04:43.901Z,14.23
2023-05-03T10:07:18.474Z,12.07
2023-05-03T10:09:48.611Z,10.18
2023-05-03T10:12:18.960Z,10.82
2023-05-03T10:14:49.420Z,11.45
2023-05-03T10:17:47.249Z,10.68
2023-05-03T10:20:23.865Z,10.50
2023-05-03T10:23:06.656Z,11.30
2023-05-03T10:25:37.190Z,10.65
2023-05-03T10:30:38.502Z,9.85
2023-05-03T10:33:14.642Z,9.65
2023-05-03T10:35:53.303Z,9.50
2023-05-03T10:38:38.868Z,10.30
2023-05-03T10:41:07.297Z,10.38
2023-05-03T10:43:34.641Z,9.15
2023-05-03T10:46:07.240Z,9.82
2023-05-03T10:48:35.747Z,10.23
2023-05-03T10:51:29.052Z,10.13
2023-05-03T10:53:56.531Z,10.98
2023-05-03T10:56:24.136Z,9.77
2023-05-03T10:58:56.189Z,10.32
2023-05-03T11:01:25.023Z,9.05
2023-05-03T11:04:17.041Z,9.40
2023-05-03T11:06:46.468Z,9.95
2023-05-03T11:09:14.996Z,10.05
2023-05-03T11:11:43.634Z,9.18
2023-05-03T11:14:13.213Z,11.13
2023-05-03T11:16:48.082Z,8.80
2023-05-03T11:19:16.142Z,10.32
2023-05-03T11:21:44.517Z,9.35
2023-05-03T11:24:13.319Z,9.32
2023-05-03T11:26:40.851Z,8.90
2023-05-03T11:29:10.802Z,10.27
2023-05-03T11:31:38.159Z,9.98
2023-05-03T11:34:06.893Z,9.07
2023-05-03T11:36:34.661Z,9.80
2023-05-03T11:39:05.887Z,10.07
2023-05-03T11:41:33.559Z,9.27
2023-05-03T11:44:15.224Z,9.85
2023-05-03T11:46:45.631Z,9.73
2023-05-03T11:49:19.161Z,9.95
2023-05-03T11:51:49.806Z,10.30
2023-05-03T11:54:24.987Z,9.93
2023-05-03T11:56:58.201Z,9.75
2023-05-03T11:59:39.474Z,10.48
2023-05-03T12:02:14.039Z,10.45
2023-05-03T12:04:47.905Z,9.93
2023-05-03T12:07:19.049Z,10.23
2023-05-03T12:09:56.604Z,10.73
2023-05-03T12:12:36.069Z,9.90
2023-05-03T12:15:08.008Z,11.95
2023-05-03T12:22:58.819Z,10.45
2023-05-03T12:25:30.567Z,11.40
2023-05-03T12:30:34.161Z,10.02
2023-05-03T12:33:04.397Z,9.77
2023-05-03T12:35:34.007Z,9.93
2023-05-03T12:38:04.614Z,8.65
2023-05-03T12:40:34.570Z,8.02
2023-05-03T12:43:03.534Z,8.23
2023-05-03T12:45:34.593Z,10.95
2023-05-03T12:48:03.114Z,9.52
2023-05-03T12:50:31.891Z,8.55
2023-05-03T12:53:02.221Z,8.35
2023-05-03T12:58:40.138Z,7.65
2023-05-03T13:03:23.271Z,8.07
2023-05-03T13:05:53.485Z,7.95
2023-05-03T13:08:21.841Z,7.95
2023-05-03T13:10:49.728Z,8.52
2023-05-03T13:13:17.334Z,8.68
2023-05-03T13:15:44.574Z,8.70
2023-05-03T13:18:13.625Z,9.43
2023-05-03T13:20:40.970Z,9.40
2023-05-03T13:23:08.250Z,9.07
2023-05-03T13:25:36.035Z,10.43
2023-05-03T13:28:04.016Z,8.35
2023-05-03T13:30:31.669Z,8.85
2023-05-03T13:32:59.012Z,8.27
2023-05-03T13:35:26.408Z,9.55
2023-05-03T13:37:53.714Z,9.23
2023-05-03T13:40:21.224Z,8.10
2023-05-03T13:42:48.894Z,9.27
2023-05-03T13:45:16.598Z,9.82
2023-05-03T13:48:04.724Z,8.95
2023-05-03T13:50:31.622Z,10.60
2023-05-03T13:52:58.926Z,10.38
2023-05-03T13:55:27.043Z,11.82
2023-05-03T13:57:54.376Z,10.32
2023-05-03T14:00:22.039Z,11.00
2023-05-03T14:02:49.618Z,12.07
2023-05-03T14:05:17.427Z,12.48
2023-05-03T14:07:46.210Z,12.07
2023-05-03T14:10:13.954Z,10.63
2023-05-03T14:12:41.861Z,10.70
2023-05-03T14:15:09.781Z,10.00
2023-05-03T14:17:37.060Z,10.73
2023-05-03T14:20:08.406Z,12.70
2023-05-03T14:22:35.813Z,12.07
2023-05-03T14:25:03.249Z,13.10
2023-05-03T14:27:30.961Z,12.07
2023-05-03T14:29:58.276Z,12.25
2023-05-03T14:32:25.851Z,12.40
2023-05-03T14:34:53.367Z,13.68
2023-05-03T14:37:21.497Z,14.68
2023-05-03T14:39:49.309Z,14.25
2023-05-03T14:42:16.595Z,13.75
2023-05-03T14:44:44.666Z,13.73
2023-05-03T14:47:12.033Z,13.07
2023-05-03T14:49:42.189Z,12.68
2023-05-03T14:52:09.530Z,14.30
2023-05-03T14:54:38.101Z,15.23
2023-05-03T14:57:05.585Z,13.40
2023-05-03T14:59:33.779Z,13.07
2023-05-03T15:02:02.043Z,15.57
2023-05-03T15:04:29.788Z,13.95
2023-05-03T15:07:02.937Z,13.77
2023-05-03T15:09:38.101Z,13.93
2023-05-03T15:12:05.864Z,13.20
2023-05-03T15:14:33.272Z,14.18
2023-05-03T15:17:00.944Z,15.15
2023-05-03T15:19:28.868Z,14.73
2023-05-03T15:21:56.293Z,14.82
2023-05-03T15:24:23.788Z,12.77
2023-05-03T15:26:51.687Z,14.50
2023-05-03T15:29:19.200Z,15.63
2023-05-03T15:31:46.956Z,15.23
2023-05-03T15:34:14.545Z,14.60
2023-05-03T15:36:41.875Z,16.27
2023-05-03T15:39:10.199Z,14.05
2023-05-03T15:41:37.791Z,14.05
2023-05-03T15:44:07.325Z,16.77
2023-05-03T15:46:34.954Z,15.02
2023-05-03T15:49:02.586Z,16.58
2023-05-03T15:51:30.034Z,15.75
2023-05-03T15:53:57.456Z,16.27
2023-05-03T15:56:25.321Z,15.02
2023-05-03T15:58:52.651Z,15.77
2023-05-03T16:01:20.181Z,14.73
2023-05-03T16:03:48.052Z,14.65
2023-05-03T16:06:18.303Z,14.95
2023-05-03T16:08:46.294Z,15.93
2023-05-03T16:11:13.705Z,15.23
2023-05-03T16:13:41.281Z,15.27
2023-05-03T16:16:09.143Z,15.73
2023-05-03T16:18:36.865Z,15.13
2023-05-03T16:21:04.305Z,15.63
2023-05-03T16:23:31.699Z,16.38
2023-05-03T16:25:58.960Z,15.73
2023-05-03T16:28:26.512Z,14.70
2023-05-03T16:30:53.894Z,16.55
2023-05-03T16:33:21.575Z,17.30
2023-05-03T16:35:50.091Z,18.77
2023-05-03T16:38:17.460Z,18.98
2023-05-03T16:40:46.235Z,19.00
2023-05-03T16:43:15.714Z,19.33
2023-05-03T16:45:43.264Z,18.00
2023-05-03T16:48:11.467Z,17.35
2023-05-03T16:50:42.382Z,16.75
2023-05-03T16:53:11.769Z,16.98
2023-05-03T16:55:39.078Z,16.63
2023-05-03T16:58:07.250Z,15.73
2023-05-03T17:00:35.574Z,15.73
2023-05-03T17:03:03.511Z,16.05
2023-05-03T17:05:33.369Z,17.13
2023-05-03T17:08:04.562Z,16.42
2023-05-03T17:10:31.932Z,17.75
2023-05-03T17:13:01.375Z,19.50
2023-05-03T17:15:29.052Z,21.70
2023-05-03T17:17:56.533Z,18.88
2023-05-03T17:20:23.803Z,18.88
2023-05-03T17:22:51.634Z,17.83
2023-05-03T17:25:19.057Z,17.48
2023-05-03T17:27:46.348Z,20.58
2023-05-03T17:30:14.564Z,18.08
2023-05-03T17:32:42.078Z,16.98
2023-05-03T17:35:11.414Z,18.35
2023-05-03T17:37:39.801Z,18.55
2023-05-03T17:40:08.180Z,20.30
2023-05-03T17:42:36.071Z,19.88
2023-05-03T17:45:04.836Z,20.92
2023-05-03T17:47:32.543Z,19.70
2023-05-03T17:50:00.190Z,20.10
2023-05-03T17:52:27.563Z,18.40
2023-05-03T17:54:56.828Z,19.05
2023-05-03T17:57:24.382Z,18.50
2023-05-03T17:59:52.012Z,18.33
2023-05-03T18:02:19.456Z,18.15
2023-05-03T18:04:47.030Z,17.50
2023-05-03T18:07:14.935Z,17.40
2023-05-03T18:09:42.389Z,17.83
2023-05-03T18:12:09.639Z,18.17
2023-05-03T18:14:37.617Z,18.60
2023-05-03T18:17:05.067Z,20.70
2023-05-03T18:19:32.514Z,18.10
2023-05-03T18:22:00.005Z,18.05
2023-05-03T18:24:27.352Z,18.33
2023-05-03T18:26:54.851Z,18.30
2023-05-03T18:29:22.142Z,19.20
2023-05-03T18:31:49.466Z,19.17
2023-05-03T18:34:16.901Z,19.10
2023-05-03T18:36:44.156Z,20.73
2023-05-03T18:39:11.450Z,18.85
2023-05-03T18:41:38.752Z,19.27
2023-05-03T18:44:07.854Z,18.75
2023-05-03T18:46:37.560Z,18.95
2023-05-03T18:49:05.143Z,18.33
2023-05-03T18:51:32.847Z,18.05
2023-05-03T18:54:00.230Z,20.52
2023-05-03T18:56:30.360Z,18.83
2023-05-03T18:58:57.935Z,19.20
2023-05-03T19:01:26.796Z,19.27
2023-05-03T19:03:55.141Z,19.75
2023-05-03T19:06:22.694Z,17.35
2023-05-03T19:08:49.998Z,17.15
2023-05-03T19:11:17.521Z,18.85
2023-05-03T19:13:46.320Z,18.65
2023-05-03T19:16:15.743Z,18.23
2023-05-03T19:18:44.394Z,17.65
2023-05-03T19:21:17.961Z,17.23
2023-05-03T19:23:45.601Z,18.10
2023-05-03T19:26:13.283Z,19.58
2023-05-03T19:28:40.672Z,18.80
2023-05-03T19:31:08.169Z,19.38
2023-05-03T19:33:35.900Z,18.48
2023-05-03T19:36:06.812Z,19.77
2023-05-03T19:38:38.188Z,20.23
2023-05-03T19:41:11.977Z,20.48
2023-05-03T19:43:40.534Z,21.55
2023-05-03T19:46:08.526Z,20.27
2023-05-03T19:48:36.599Z,20.98
2023-05-03T19:51:05.912Z,21.95
2023-05-03T19:53:34.010Z,22.17
2023-05-03T19:56:07.273Z,21.55
2023-05-03T19:58:34.553Z,22.63
2023-05-03T20:01:02.732Z,21.67
2023-05-03T20:03:30.376Z,20.83
2023-05-03T20:05:58.422Z,23.35
2023-05-03T20:08:25.945Z,23.65
2023-05-03T20:10:55.880Z,24.80
2023-05-03T20:13:25.929Z,23.83
2023-05-03T20:15:53.906Z,24.50
2023-05-03T20:18:21.517Z,26.20
2023-05-03T20:20:48.897Z,28.15
2023-05-03T20:23:17.267Z,27.00
2023-05-03T20:25:44.714Z,27.33
2023-05-03T20:28:13.077Z,27.83
2023-05-03T20:30:40.611Z,29.25
2023-05-03T20:33:08.002Z,30.73
2023-05-03T20:35:39.749Z,29.88
2023-05-03T20:38:07.063Z,30.00
2023-05-03T20:40:34.628Z,31.52
2023-05-03T20:43:01.991Z,32.28
2023-05-03T20:45:29.944Z,33.72
2023-05-03T20:47:57.412Z,32.72
2023-05-03T20:50:24.766Z,29.67
2023-05-03T20:52:52.306Z,30.40
2023-05-03T20:55:19.692Z,28.23
2023-05-03T20:57:47.019Z,27.83
2023-05-03T21:00:16.080Z,29.40
2023-05-03T21:02:43.496Z,29.55
2023-05-03T21:05:11.430Z,28.40
2023-05-03T21:07:38.871Z,28.23
2023-05-03T21:10:08.016Z,29.38
2023-05-03T21:12:35.517Z,30.02
2023-05-03T21:15:02.790Z,30.60
2023-05-03T21:17:30.045Z,32.05
2023-05-03T21:19:57.346Z,28.77
2023-05-03T21:22:24.720Z,31.10
2023-05-03T21:24:52.021Z,32.20
2023-05-03T21:27:22.255Z,31.90
2023-05-03T21:29:49.598Z,32.80
2023-05-03T21:32:16.804Z,34.03
2023-05-03T21:34:44.054Z,36.30
2023-05-03T21:37:11.544Z,35.80
2023-05-03T21:39:39.576Z,35.45
2023-05-03T21:42:07.081Z,35.08
2023-05-03T21:44:35.189Z,34.45
2023-05-03T21:47:03.171Z,37.80
2023-05-03T21:49:30.825Z,36.80
2023-05-03T21:51:58.342Z,35.05
2023-05-03T21:54:26.519Z,34.88
2023-05-03T21:56:53.753Z,35.55
2023-05-03T21:59:21.463Z,34.58
2023-05-03T22:01:48.937Z,33.67
2023-05-03T22:04:16.157Z,36.30
2023-05-03T22:06:44.387Z,35.80
2023-05-03T22:09:11.858Z,34.20
2023-05-03T22:11:39.017Z,31.75
2023-05-03T22:14:08.332Z,33.65
2023-05-03T22:16:42.138Z,34.78
2023-05-03T22:19:10.180Z,33.22
2023-05-03T22:21:37.456Z,36.33
2023-05-03T22:24:05.201Z,36.90
2023-05-03T22:26:32.413Z,34.50
2023-05-03T22:28:59.660Z,33.35
2023-05-03T22:31:27.612Z,32.92
2023-05-03T22:33:54.958Z,32.80
2023-05-03T22:36:22.345Z,30.58
2023-05-03T22:38:49.606Z,32.00
2023-05-03T22:41:16.874Z,30.40
2023-05-03T22:43:44.086Z,32.67
2023-05-03T22:46:11.385Z,32.47
2023-05-03T22:48:38.744Z,35.25
2023-05-03T22:51:06.252Z,35.42
2023-05-03T22:53:33.579Z,37.38
2023-05-03T22:56:04.461Z,38.38
2023-05-03T22:58:32.088Z,36.90
2023-05-03T23:00:59.609Z,37.83
2023-05-03T23:03:30.065Z,38.22
2023-05-03T23:05:57.468Z,38.50
2023-05-03T23:08:24.762Z,41.78
2023-05-03T23:10:54.159Z,41.67
2023-05-03T23:13:21.449Z,41.65
2023-05-03T23:15:48.707Z,41.75
2023-05-03T23:18:16.241Z,41.45
2023-05-03T23:20:43.550Z,39.38
2023-05-03T23:23:10.886Z,41.05
2023-05-03T23:25:38.312Z,42.05
2023-05-03T23:28:05.926Z,42.83
2023-05-03T23:30:33.675Z,40.65
2023-05-03T23:33:01.589Z,42.55
2023-05-03T23:35:29.010Z,41.50
2023-05-03T23:37:56.327Z,44.65
2023-05-03T23:40:24.137Z,42.47
2023-05-03T23:42:51.419Z,44.20
2023-05-03T23:45:18.801Z,45.72
2023-05-03T23:47:46.492Z,45.72
2023-05-03T23:50:14.039Z,42.28
2023-05-03T23:52:42.471Z,45.75
2023-05-03T23:55:10.431Z,46.88
2023-05-03T23:57:38.022Z,45.88
